Bude — V7XL2 — position and weather

sailwx.info

Track history (hours):
 
Tides and Currents Weather Stations Pressure Air Temp Water Temp Dewpoint Dewpoint Depression Visibility Wind Speed Wind Dir Waves Ship Positions

Bude

Last reported at 2014-Jul-10 13:25 UTC. Time now 2014-Oct-20 21:18 UTC.
Position N 40°02' E 026°19'.
Warning: this ship's position is months out of date.

Length 119 m; draft 6.2 m.

Type: Cargo ship. MMSI: 538004506.

Date/timePositionNaut miles runAvg speedWind from/ knotsBaromVisibWave heightAir tempDewpointWater temp
2014-Jul-10 13:25N 40°02' E 026°19'  
2014-Jul-06 21:31N 37°31' E 024°24'19 9.7
2014-Jul-06 19:33N 37°14' E 024°14'10 9.4
2014-Jul-06 18:28N 37°04' E 024°10'9 9.6
2014-Jul-06 17:32N 36°56' E 024°06'10 9.8
2014-Jul-06 16:28N 36°46' E 024°01'19 9.7
2014-Jul-06 14:32N 36°35' E 023°42'426 9.5
2014-Jul-04 17:33N 36°32' E 014°51'10 9.7
2014-Jul-04 16:33N 36°36' E 014°41'1010.3
2014-Jul-04 15:33N 36°41' E 014°29'1010.0
2014-Jul-04 14:33N 36°45' E 014°18'9 9.4
2014-Jul-04 13:33N 36°49' E 014°07'190 9.5
2014-Jul-03 17:33N 38°09' E 010°31'9 8.8
2014-Jul-03 16:32N 38°13' E 010°21'9 8.8
2014-Jul-03 15:33N 38°16' E 010°10'9 8.8
2014-Jul-03 14:33N 38°19' E 009°60'8 8.5
2014-Jul-03 13:33N 38°21' E 009°49'8 8.4
2014-Jul-03 12:33N 38°24' E 009°39'8 8.4
2014-Jul-03 11:33N 38°27' E 009°29'9 8.5
2014-Jul-03 10:33N 38°30' E 009°19'8 8.3
2014-Jul-03 09:33N 38°32' E 009°09'8 8.2
2014-Jul-03 08:33N 38°35' E 008°59'8 8.2
2014-Jul-03 07:33N 38°38' E 008°49'8 8.1
2014-Jul-03 06:30N 38°41' E 008°39'8 8.3
2014-Jul-03 05:33N 38°44' E 008°30'9 8.6
2014-Jul-03 04:32N 38°48' E 008°19'9 9.3
2014-Jul-03 03:33N 38°55' E 008°13'10 9.5
2014-Jul-03 02:32N 39°04' E 008°06'22 9.9
2014-Jul-03 00:20N 39°23' E 007°52'28 9.8
2014-Jul-02 21:31N 39°47' E 007°34'1010.0
2014-Jul-02 20:29N 39°55' E 007°27'9 9.5
2014-Jul-02 19:32N 40°03' E 007°21'11 9.7
2014-Jul-02 18:24N 40°12' E 007°13'10 9.8
2014-Jul-02 17:23N 40°20' E 007°05'8 9.1
2014-Jul-02 16:28N 40°27' E 006°59'1010.1
2014-Jul-02 15:30N 40°35' E 006°52'1010.3
2014-Jul-02 14:31N 40°44' E 006°45'33 9.8
2014-Jul-02 11:11N 41°12' E 006°24'910.2
2014-Jul-02 10:19N 41°20' E 006°18'7 9.3
2014-Jul-02 09:33N 41°26' E 006°13'1510.0
2014-Jul-02 08:04N 41°39' E 006°03'1510.1
2014-Jul-02 06:33N 41°52' E 005°52'1110.8
2014-Jul-02 05:33N 42°01' E 005°44'14 9.5
2014-Jul-02 04:08N 42°12' E 005°35'710.3
2014-Jul-02 03:26N 42°19' E 005°31'9 9.0
2014-Jul-02 02:23N 42°28' E 005°26'910.2
2014-Jul-02 01:32N 42°36' E 005°21'8 8.7
2014-Jul-02 00:33N 42°44' E 005°17'19 9.4
2014-Jul-01 22:32N 43°01' E 005°06'10 9.2
2014-Jul-01 21:29N 43°10' E 005°02'8 8.3
2014-Jul-01 20:33N 43°17' E 004°59'8 7.7
2014-Jul-01 19:33N 43°24' E 004°54'2 1.6
2014-Jul-01 18:31N 43°26' E 004°53'0 0.0
2014-Jul-01 17:31N 43°26' E 004°53'0 0.0
2014-Jul-01 16:31N 43°26' E 004°53'0 0.0
2014-Jul-01 15:31N 43°26' E 004°53'0 0.0
2014-Jul-01 14:31N 43°26' E 004°53'0 0.0
2014-Jul-01 13:31N 43°26' E 004°53'0 0.0
2014-Jul-01 12:31N 43°26' E 004°53'0 0.0
2014-Jul-01 11:30N 43°26' E 004°53'0 0.0
2014-Jul-01 10:31N 43°26' E 004°53'0 0.0
2014-Jul-01 09:24N 43°26' E 004°53'0 0.0
2014-Jul-01 08:30N 43°26' E 004°53'0 0.0
2014-Jul-01 07:33N 43°26' E 004°53'0 0.0
2014-Jul-01 06:33N 43°26' E 004°53'0 0.0
2014-Jul-01 05:33N 43°26' E 004°53'0 0.0
2014-Jul-01 04:33N 43°26' E 004°53'0 0.0
2014-Jul-01 03:33N 43°26' E 004°53'0 0.0
2014-Jul-01 02:33N 43°26' E 004°53'0 0.0
2014-Jul-01 01:30N 43°26' E 004°53'0 0.0
2014-Jul-01 00:33N 43°26' E 004°53'0 0.0
2014-Jun-30 23:30N 43°26' E 004°53'0 0.0
2014-Jun-30 22:33N 43°26' E 004°53'0 0.0
2014-Jun-30 21:33N 43°26' E 004°53'0 0.0
2014-Jun-30 20:33N 43°26' E 004°53'0 0.0
2014-Jun-30 19:30N 43°26' E 004°53'0 0.0
2014-Jun-30 18:30N 43°26' E 004°53'0 0.0
2014-Jun-30 17:30N 43°26' E 004°53'0 0.0
2014-Jun-30 16:30N 43°26' E 004°53'0 0.0
2014-Jun-30 14:31N 43°26' E 004°53'0 0.0
2014-Jun-30 13:31N 43°26' E 004°53'  
Track history (hours):
 
Tides and Currents Weather Stations Pressure Air Temp Water Temp Dewpoint Dewpoint Depression Visibility Wind Speed Wind Dir Waves Ship Positions

Bude

Last reported at 2014-Jul-10 13:25 UTC. Time now 2014-Oct-20 21:18 UTC.
Position N 40°02' E 026°19'.
Warning: this ship's position is months out of date.

Length 119 m; draft 6.2 m.

Type: Cargo ship. MMSI: 538004506.

Date/timePositionNaut miles runAvg speedWind from/ knotsBaromVisibWave heightAir tempDewpointWater temp
2014-Jul-10 13:25N 40°02' E 026°19'  
2014-Jul-06 21:31N 37°31' E 024°24'19 9.7
2014-Jul-06 19:33N 37°14' E 024°14'10 9.4
2014-Jul-06 18:28N 37°04' E 024°10'9 9.6
2014-Jul-06 17:32N 36°56' E 024°06'10 9.8
2014-Jul-06 16:28N 36°46' E 024°01'19 9.7
2014-Jul-06 14:32N 36°35' E 023°42'426 9.5
2014-Jul-04 17:33N 36°32' E 014°51'10 9.7
2014-Jul-04 16:33N 36°36' E 014°41'1010.3
2014-Jul-04 15:33N 36°41' E 014°29'1010.0
2014-Jul-04 14:33N 36°45' E 014°18'9 9.4
2014-Jul-04 13:33N 36°49' E 014°07'190 9.5
2014-Jul-03 17:33N 38°09' E 010°31'9 8.8
2014-Jul-03 16:32N 38°13' E 010°21'9 8.8
2014-Jul-03 15:33N 38°16' E 010°10'9 8.8
2014-Jul-03 14:33N 38°19' E 009°60'8 8.5
2014-Jul-03 13:33N 38°21' E 009°49'8 8.4
2014-Jul-03 12:33N 38°24' E 009°39'8 8.4
2014-Jul-03 11:33N 38°27' E 009°29'9 8.5
2014-Jul-03 10:33N 38°30' E 009°19'8 8.3
2014-Jul-03 09:33N 38°32' E 009°09'8 8.2
2014-Jul-03 08:33N 38°35' E 008°59'8 8.2
2014-Jul-03 07:33N 38°38' E 008°49'8 8.1
2014-Jul-03 06:30N 38°41' E 008°39'8 8.3
2014-Jul-03 05:33N 38°44' E 008°30'9 8.6
2014-Jul-03 04:32N 38°48' E 008°19'9 9.3
2014-Jul-03 03:33N 38°55' E 008°13'10 9.5
2014-Jul-03 02:32N 39°04' E 008°06'22 9.9
2014-Jul-03 00:20N 39°23' E 007°52'28 9.8
2014-Jul-02 21:31N 39°47' E 007°34'1010.0
2014-Jul-02 20:29N 39°55' E 007°27'9 9.5
2014-Jul-02 19:32N 40°03' E 007°21'11 9.7
2014-Jul-02 18:24N 40°12' E 007°13'10 9.8
2014-Jul-02 17:23N 40°20' E 007°05'8 9.1
2014-Jul-02 16:28N 40°27' E 006°59'1010.1
2014-Jul-02 15:30N 40°35' E 006°52'1010.3
2014-Jul-02 14:31N 40°44' E 006°45'33 9.8
2014-Jul-02 11:11N 41°12' E 006°24'910.2
2014-Jul-02 10:19N 41°20' E 006°18'7 9.3
2014-Jul-02 09:33N 41°26' E 006°13'1510.0
2014-Jul-02 08:04N 41°39' E 006°03'1510.1
2014-Jul-02 06:33N 41°52' E 005°52'1110.8
2014-Jul-02 05:33N 42°01' E 005°44'14 9.5
2014-Jul-02 04:08N 42°12' E 005°35'710.3
2014-Jul-02 03:26N 42°19' E 005°31'9 9.0
2014-Jul-02 02:23N 42°28' E 005°26'910.2
2014-Jul-02 01:32N 42°36' E 005°21'8 8.7
2014-Jul-02 00:33N 42°44' E 005°17'19 9.4
2014-Jul-01 22:32N 43°01' E 005°06'10 9.2
2014-Jul-01 21:29N 43°10' E 005°02'8 8.3
2014-Jul-01 20:33N 43°17' E 004°59'8 7.7
2014-Jul-01 19:33N 43°24' E 004°54'2 1.6
2014-Jul-01 18:31N 43°26' E 004°53'0 0.0
2014-Jul-01 17:31N 43°26' E 004°53'0 0.0
2014-Jul-01 16:31N 43°26' E 004°53'0 0.0
2014-Jul-01 15:31N 43°26' E 004°53'0 0.0
2014-Jul-01 14:31N 43°26' E 004°53'0 0.0
2014-Jul-01 13:31N 43°26' E 004°53'0 0.0
2014-Jul-01 12:31N 43°26' E 004°53'0 0.0
2014-Jul-01 11:30N 43°26' E 004°53'0 0.0
2014-Jul-01 10:31N 43°26' E 004°53'0 0.0
2014-Jul-01 09:24N 43°26' E 004°53'0 0.0
2014-Jul-01 08:30N 43°26' E 004°53'0 0.0
2014-Jul-01 07:33N 43°26' E 004°53'0 0.0
2014-Jul-01 06:33N 43°26' E 004°53'0 0.0
2014-Jul-01 05:33N 43°26' E 004°53'0 0.0
2014-Jul-01 04:33N 43°26' E 004°53'0 0.0
2014-Jul-01 03:33N 43°26' E 004°53'0 0.0
2014-Jul-01 02:33N 43°26' E 004°53'0 0.0
2014-Jul-01 01:30N 43°26' E 004°53'0 0.0
2014-Jul-01 00:33N 43°26' E 004°53'0 0.0
2014-Jun-30 23:30N 43°26' E 004°53'0 0.0
2014-Jun-30 22:33N 43°26' E 004°53'0 0.0
2014-Jun-30 21:33N 43°26' E 004°53'0 0.0
2014-Jun-30 20:33N 43°26' E 004°53'0 0.0
2014-Jun-30 19:30N 43°26' E 004°53'0 0.0
2014-Jun-30 18:30N 43°26' E 004°53'0 0.0
2014-Jun-30 17:30N 43°26' E 004°53'0 0.0
2014-Jun-30 16:30N 43°26' E 004°53'0 0.0
2014-Jun-30 14:31N 43°26' E 004°53'0 0.0
2014-Jun-30 13:31N 43°26' E 004°53'  

Dump ship's entire track history